createdAt,value
2022-08-07T00:01:44.232Z,13.54
2022-08-07T00:04:09.648Z,13.51
2022-08-07T00:06:51.408Z,13.48
2022-08-07T00:09:22.201Z,13.44
2022-08-07T00:11:55.536Z,13.42
2022-08-07T00:14:25.485Z,13.38
2022-08-07T00:16:52.828Z,13.35
2022-08-07T00:19:21.773Z,13.33
2022-08-07T00:22:02.171Z,13.31
2022-08-07T00:24:31.614Z,13.29
2022-08-07T00:27:07.215Z,13.25
2022-08-07T00:29:37.112Z,13.21
2022-08-07T00:32:05.825Z,13.18
2022-08-07T00:34:35.392Z,13.14
2022-08-07T00:37:04.923Z,13.11
2022-08-07T00:39:32.944Z,13.06
2022-08-07T00:42:02.079Z,13.00
2022-08-07T00:44:33.114Z,12.96
2022-08-07T00:47:06.476Z,12.91
2022-08-07T00:50:19.651Z,12.85
2022-08-07T00:52:33.200Z,12.79
2022-08-07T00:55:04.759Z,12.75
2022-08-07T00:57:38.064Z,12.72
2022-08-07T01:00:23.146Z,12.66
2022-08-07T01:02:51.395Z,12.60
2022-08-07T01:05:20.432Z,12.56
2022-08-07T01:07:51.962Z,12.53
2022-08-07T01:10:20.082Z,12.50
2022-08-07T01:12:54.018Z,12.47
2022-08-07T01:16:00.516Z,12.44
2022-08-07T01:18:11.216Z,12.40
2022-08-07T01:20:58.453Z,12.36
2022-08-07T01:23:38.573Z,12.34
2022-08-07T01:26:08.412Z,12.32
2022-08-07T01:28:41.780Z,12.30
2022-08-07T01:31:15.459Z,12.27
2022-08-07T01:33:54.006Z,12.22
2022-08-07T01:36:33.386Z,12.19
2022-08-07T01:39:01.817Z,12.18
2022-08-07T01:41:38.060Z,12.15
2022-08-07T01:44:06.031Z,12.09
2022-08-07T01:46:34.002Z,12.02
2022-08-07T01:49:02.399Z,11.99
2022-08-07T01:52:04.299Z,11.98
2022-08-07T01:54:33.190Z,11.96
2022-08-07T01:57:27.487Z,11.94
2022-08-07T01:59:57.737Z,11.91
2022-08-07T02:03:18.553Z,11.88
2022-08-07T02:05:59.885Z,11.83
2022-08-07T02:08:29.521Z,11.79
2022-08-07T02:10:59.351Z,11.76
2022-08-07T02:13:56.320Z,11.73
2022-08-07T02:16:19.948Z,11.72
2022-08-07T02:18:56.363Z,11.69
2022-08-07T02:21:24.735Z,11.67
2022-08-07T02:23:53.231Z,11.65
2022-08-07T02:26:34.388Z,11.59
2022-08-07T02:29:03.198Z,11.53
2022-08-07T02:31:32.724Z,11.49
2022-08-07T02:34:11.255Z,11.46
2022-08-07T02:36:45.959Z,11.44
2022-08-07T02:39:17.176Z,11.43
2022-08-07T02:42:03.378Z,11.41
2022-08-07T02:44:39.730Z,11.39
2022-08-07T02:47:19.524Z,11.36
2022-08-07T02:49:58.431Z,11.34
2022-08-07T02:52:39.609Z,11.31
2022-08-07T02:56:04.195Z,11.30
2022-08-07T02:58:21.585Z,11.28
2022-08-07T03:00:51.629Z,11.27
2022-08-07T03:03:22.618Z,11.25
2022-08-07T03:05:53.572Z,11.24
2022-08-07T03:08:26.760Z,11.22
2022-08-07T03:10:55.909Z,11.21
2022-08-07T03:13:23.084Z,11.21
2022-08-07T03:15:56.559Z,11.19
2022-08-07T03:18:34.199Z,11.19
2022-08-07T03:21:08.250Z,11.18
2022-08-07T03:24:21.220Z,11.16
2022-08-07T03:26:28.127Z,11.14
2022-08-07T03:28:57.240Z,11.11
2022-08-07T03:31:42.923Z,11.09
2022-08-07T03:34:18.445Z,11.07
2022-08-07T03:36:51.173Z,11.06
2022-08-07T03:39:46.345Z,11.04
2022-08-07T03:42:09.259Z,11.00
2022-08-07T03:44:37.737Z,10.98
2022-08-07T03:47:10.930Z,10.94
2022-08-07T03:49:39.379Z,10.89
2022-08-07T03:52:15.930Z,10.84
2022-08-07T03:54:54.986Z,10.80
2022-08-07T03:58:08.885Z,10.78
2022-08-07T04:00:16.981Z,10.77
2022-08-07T04:02:49.486Z,10.75
2022-08-07T04:05:19.881Z,10.74
2022-08-07T04:07:51.707Z,10.74
2022-08-07T04:10:20.120Z,10.75
2022-08-07T04:12:50.331Z,10.78
2022-08-07T04:15:18.411Z,10.79
2022-08-07T04:18:56.633Z,10.84
2022-08-07T04:20:35.126Z,10.89
2022-08-07T04:23:06.410Z,10.92
2022-08-07T04:25:39.416Z,10.94
2022-08-07T04:28:10.339Z,10.97
2022-08-07T04:30:55.205Z,11.01
2022-08-07T04:33:25.187Z,11.06
2022-08-07T04:35:54.078Z,11.12
2022-08-07T04:38:21.924Z,11.19
2022-08-07T04:40:52.732Z,11.25
2022-08-07T04:44:10.470Z,11.32
2022-08-07T04:46:34.690Z,11.41
2022-08-07T04:49:27.732Z,11.49
2022-08-07T04:52:28.876Z,11.58
2022-08-07T04:58:11.508Z,11.70
2022-08-07T04:59:07.729Z,11.83
2022-08-07T05:01:50.610Z,11.96
2022-08-07T05:04:43.990Z,12.08
2022-08-07T05:07:30.672Z,12.21
2022-08-07T05:10:19.655Z,12.34
2022-08-07T05:14:51.873Z,12.47
2022-08-07T05:16:17.549Z,12.64
2022-08-07T05:18:53.253Z,12.78
2022-08-07T05:21:59.379Z,12.93
2022-08-07T05:24:17.109Z,13.08
2022-08-07T05:26:46.535Z,13.20
2022-08-07T05:29:16.722Z,13.30
2022-08-07T05:31:51.264Z,13.41
2022-08-07T05:34:21.185Z,13.51
2022-08-07T05:36:55.838Z,13.59
2022-08-07T05:40:05.434Z,13.65
2022-08-07T05:42:13.372Z,13.78
2022-08-07T05:44:52.877Z,13.91
2022-08-07T05:47:38.344Z,14.07
2022-08-07T05:50:16.478Z,14.22
2022-08-07T05:52:43.664Z,14.35
2022-08-07T05:55:13.607Z,14.49
2022-08-07T05:57:42.930Z,14.63
2022-08-07T06:00:16.692Z,14.79
2022-08-07T06:02:49.107Z,14.91
2022-08-07T06:05:17.874Z,14.99
2022-08-07T06:08:14.682Z,15.03
2022-08-07T06:10:36.054Z,15.04
2022-08-07T06:13:03.122Z,15.08
2022-08-07T06:15:39.432Z,15.19
2022-08-07T06:18:12.203Z,15.35
2022-08-07T06:20:50.276Z,15.51
2022-08-07T06:24:37.160Z,15.69
2022-08-07T06:26:16.657Z,15.87
2022-08-07T06:28:54.341Z,16.02
2022-08-07T06:31:24.262Z,16.12
2022-08-07T06:34:09.394Z,16.27
2022-08-07T06:36:36.979Z,16.43
2022-08-07T06:40:13.545Z,16.60
2022-08-07T06:42:09.186Z,16.78
2022-08-07T06:44:39.784Z,16.96
2022-08-07T06:47:10.178Z,17.09
2022-08-07T06:49:51.070Z,17.23
2022-08-07T06:52:31.429Z,17.39
2022-08-07T06:55:31.950Z,17.44
2022-08-07T06:57:57.088Z,17.43
2022-08-07T07:00:24.824Z,17.55
2022-08-07T07:02:57.755Z,17.68
2022-08-07T07:06:03.685Z,17.79
2022-08-07T07:08:18.437Z,17.86
2022-08-07T07:10:56.541Z,18.03
2022-08-07T07:13:43.674Z,18.18
2022-08-07T07:16:23.833Z,18.39
2022-08-07T07:19:11.185Z,18.58
2022-08-07T07:22:11.275Z,18.80
2022-08-07T07:24:43.133Z,18.97
2022-08-07T07:27:35.554Z,19.05
2022-08-07T07:30:32.355Z,19.08
2022-08-07T07:33:01.193Z,19.19
2022-08-07T07:35:33.651Z,19.25
2022-08-07T07:38:13.765Z,19.30
2022-08-07T07:40:41.978Z,19.41
2022-08-07T07:43:11.574Z,19.48
2022-08-07T07:46:36.936Z,19.56
2022-08-07T07:48:35.913Z,19.66
2022-08-07T07:51:10.578Z,19.78
2022-08-07T07:53:51.738Z,19.87
2022-08-07T07:56:30.602Z,19.96
2022-08-07T07:59:04.133Z,20.04
2022-08-07T08:02:02.171Z,20.11
2022-08-07T08:04:25.812Z,20.18
2022-08-07T08:06:56.111Z,20.30
2022-08-07T08:09:29.687Z,20.42
2022-08-07T08:12:03.082Z,20.57
2022-08-07T08:14:34.383Z,20.77
2022-08-07T08:17:56.118Z,20.87
2022-08-07T08:20:17.366Z,20.82
2022-08-07T08:23:02.545Z,20.90
2022-08-07T08:25:52.256Z,21.08
2022-08-07T08:28:38.633Z,21.26
2022-08-07T08:31:15.874Z,21.42
2022-08-07T08:33:49.376Z,21.51
2022-08-07T08:36:29.672Z,21.56
2022-08-07T08:39:01.640Z,21.70
2022-08-07T08:41:58.611Z,21.87
2022-08-07T08:44:53.016Z,22.04
2022-08-07T08:47:52.129Z,22.19
2022-08-07T08:50:39.272Z,22.33
2022-08-07T08:53:31.698Z,22.48
2022-08-07T08:56:24.605Z,22.65
2022-08-07T08:59:05.709Z,22.81
2022-08-07T09:01:59.946Z,22.89
2022-08-07T09:04:47.651Z,22.84
2022-08-07T09:07:46.562Z,22.85
2022-08-07T09:10:26.491Z,22.89
2022-08-07T09:13:38.758Z,22.94
2022-08-07T09:16:26.729Z,22.98
2022-08-07T09:19:51.866Z,23.13
2022-08-07T09:24:32.198Z,23.26
2022-08-07T09:25:39.113Z,23.07
2022-08-07T09:29:24.342Z,23.03
2022-08-07T09:31:10.646Z,23.26
2022-08-07T09:34:08.479Z,23.42
2022-08-07T09:36:42.762Z,23.43
2022-08-07T09:39:18.119Z,23.43
2022-08-07T09:42:24.889Z,23.52
2022-08-07T09:47:51.832Z,23.60
2022-08-07T09:48:06.362Z,23.64
2022-08-07T09:51:03.132Z,23.74
2022-08-07T09:53:50.103Z,24.01
2022-08-07T09:56:49.118Z,24.27
2022-08-07T10:00:00.968Z,24.45
2022-08-07T10:02:55.268Z,24.60
2022-08-07T10:06:00.135Z,24.47
2022-08-07T10:08:55.494Z,24.40
2022-08-07T10:12:02.067Z,24.51
2022-08-07T10:14:58.217Z,24.66
2022-08-07T10:18:01.434Z,24.73
2022-08-07T10:20:32.649Z,24.95
2022-08-07T10:23:11.698Z,25.18
2022-08-07T10:26:00.698Z,25.51
2022-08-07T10:28:49.771Z,25.61
2022-08-07T10:31:39.013Z,25.52
2022-08-07T10:34:32.283Z,25.29
2022-08-07T10:37:18.431Z,25.17
2022-08-07T10:40:15.398Z,25.43
2022-08-07T10:43:12.554Z,25.55
2022-08-07T10:45:57.472Z,25.27
2022-08-07T10:48:51.247Z,24.93
2022-08-07T10:52:01.410Z,24.67
2022-08-07T10:54:27.219Z,24.56
2022-08-07T10:57:08.568Z,24.51
2022-08-07T10:59:53.215Z,24.39
2022-08-07T11:02:35.608Z,24.15
2022-08-07T11:05:24.769Z,24.01
2022-08-07T11:08:29.142Z,24.26
2022-08-07T11:11:10.339Z,24.75
2022-08-07T11:14:43.411Z,25.05
2022-08-07T11:17:07.252Z,25.36
2022-08-07T11:19:56.053Z,25.56
2022-08-07T11:22:55.578Z,25.72
2022-08-07T11:25:36.257Z,26.07
2022-08-07T11:28:17.650Z,26.46
2022-08-07T11:30:59.585Z,26.72
2022-08-07T11:33:53.691Z,26.99
2022-08-07T11:36:32.824Z,27.23
2022-08-07T11:39:59.273Z,27.26
2022-08-07T11:42:29.744Z,26.98
2022-08-07T11:45:10.195Z,26.92
2022-08-07T11:47:59.586Z,26.78
2022-08-07T11:51:41.657Z,26.52
2022-08-07T11:54:22.129Z,26.28
2022-08-07T11:58:00.748Z,26.53
2022-08-07T12:00:28.413Z,26.89
2022-08-07T12:03:41.692Z,27.05
2022-08-07T12:06:37.949Z,27.40
2022-08-07T12:09:16.779Z,27.83
2022-08-07T12:12:10.192Z,28.37
2022-08-07T12:14:56.313Z,28.95
2022-08-07T12:17:37.279Z,29.56
2022-08-07T12:20:30.930Z,30.19
2022-08-07T12:23:21.574Z,30.55
2022-08-07T12:26:29.873Z,30.89
2022-08-07T12:29:37.127Z,31.39
2022-08-07T12:32:45.155Z,32.20
2022-08-07T12:35:16.318Z,32.90
2022-08-07T12:38:09.509Z,33.33
2022-08-07T12:40:48.583Z,34.30
2022-08-07T12:44:02.791Z,34.89
2022-08-07T12:46:26.245Z,35.40
2022-08-07T12:49:25.770Z,36.04
2022-08-07T12:52:12.167Z,36.79
2022-08-07T12:54:54.383Z,36.04
2022-08-07T12:57:38.828Z,34.98
2022-08-07T13:00:20.725Z,33.79
2022-08-07T13:04:02.068Z,33.36
2022-08-07T13:06:37.155Z,33.92
2022-08-07T13:10:37.379Z,35.08
2022-08-07T13:12:51.925Z,36.16
2022-08-07T13:15:38.802Z,36.93
2022-08-07T13:18:28.397Z,37.18
2022-08-07T13:21:37.797Z,37.30
2022-08-07T13:24:52.204Z,37.65
2022-08-07T13:28:10.883Z,38.31
2022-08-07T13:30:41.040Z,38.68
2022-08-07T13:34:30.139Z,38.67
2022-08-07T13:36:30.680Z,38.79
2022-08-07T13:40:33.543Z,39.24
2022-08-07T13:42:27.688Z,39.65
2022-08-07T13:45:20.900Z,39.78
2022-08-07T13:48:06.061Z,40.23
2022-08-07T13:50:44.290Z,40.87
2022-08-07T13:53:22.005Z,41.82
2022-08-07T13:55:54.689Z,42.18
2022-08-07T13:58:56.116Z,42.65
2022-08-07T14:01:26.333Z,43.07
2022-08-07T14:04:06.857Z,43.01
2022-08-07T14:06:38.586Z,43.18
2022-08-07T14:09:07.418Z,43.45
2022-08-07T14:11:53.748Z,43.21
2022-08-07T14:14:33.641Z,42.96
2022-08-07T14:17:13.025Z,42.62
2022-08-07T14:20:40.570Z,42.80
2022-08-07T14:22:48.054Z,43.17
2022-08-07T14:25:16.895Z,43.48
2022-08-07T14:28:12.568Z,43.21
2022-08-07T14:30:35.151Z,41.88
2022-08-07T14:33:08.443Z,40.40
2022-08-07T14:35:44.899Z,39.25
2022-08-07T14:38:30.792Z,37.87
2022-08-07T14:41:12.218Z,36.52
2022-08-07T14:43:57.572Z,35.22
2022-08-07T14:46:32.460Z,34.18
2022-08-07T14:49:55.834Z,34.30
2022-08-07T14:52:04.316Z,35.56
2022-08-07T14:54:41.994Z,35.81
2022-08-07T15:00:05.994Z,34.45
2022-08-07T15:02:34.642Z,34.38
2022-08-07T15:05:03.455Z,34.58
2022-08-07T15:07:51.006Z,34.97
2022-08-07T15:10:26.637Z,36.12
2022-08-07T15:12:58.486Z,37.02
2022-08-07T15:15:38.655Z,37.96
2022-08-07T15:18:14.458Z,38.89
2022-08-07T15:21:03.741Z,39.66
2022-08-07T15:25:14.124Z,39.55
2022-08-07T15:26:37.775Z,38.73
2022-08-07T15:32:02.790Z,38.09
2022-08-07T15:34:50.813Z,38.75
2022-08-07T15:43:53.214Z,40.35
2022-08-07T15:49:16.237Z,41.01
2022-08-07T15:54:31.466Z,41.34
2022-08-07T15:57:04.770Z,41.10
2022-08-07T15:59:39.309Z,39.79
2022-08-07T16:02:15.045Z,38.44
2022-08-07T16:04:44.075Z,37.04
2022-08-07T16:08:30.310Z,36.29
2022-08-07T16:10:14.968Z,35.17
2022-08-07T16:13:00.992Z,34.01
2022-08-07T16:16:06.551Z,32.98
2022-08-07T16:19:02.916Z,32.08
2022-08-07T16:22:05.570Z,31.47
2022-08-07T16:24:52.565Z,30.74
2022-08-07T16:27:40.407Z,30.27
2022-08-07T16:30:31.226Z,29.85
2022-08-07T16:34:02.860Z,29.33
2022-08-07T16:36:20.651Z,28.90
2022-08-07T16:39:33.780Z,28.62
2022-08-07T16:42:52.035Z,28.23
2022-08-07T16:46:21.255Z,27.88
2022-08-07T16:49:04.307Z,27.71
2022-08-07T16:52:51.418Z,27.63
2022-08-07T16:55:08.366Z,28.29
2022-08-07T16:58:01.083Z,29.67
2022-08-07T17:00:53.046Z,31.13
2022-08-07T17:03:58.319Z,32.49
2022-08-07T17:06:46.525Z,33.88
2022-08-07T17:10:07.049Z,35.02
2022-08-07T17:12:45.188Z,35.96
2022-08-07T17:15:44.408Z,36.78
2022-08-07T17:18:28.130Z,37.20
2022-08-07T17:20:56.097Z,37.40
2022-08-07T17:23:22.796Z,37.45
2022-08-07T17:26:23.602Z,37.45
2022-08-07T17:30:12.646Z,37.58
2022-08-07T17:32:30.423Z,37.64
2022-08-07T17:35:49.539Z,37.59
2022-08-07T17:38:23.638Z,37.48
2022-08-07T17:41:30.593Z,37.45
2022-08-07T17:44:05.854Z,37.44
2022-08-07T17:46:52.246Z,37.38
2022-08-07T17:49:23.453Z,36.97
2022-08-07T17:52:10.545Z,36.71
2022-08-07T17:54:54.037Z,36.60
2022-08-07T17:57:58.365Z,36.58
2022-08-07T18:00:34.542Z,36.56
2022-08-07T18:03:25.452Z,36.50
2022-08-07T18:06:03.031Z,36.46
2022-08-07T18:08:34.250Z,36.39
2022-08-07T18:12:16.638Z,36.21
2022-08-07T18:14:31.554Z,35.93
2022-08-07T18:18:47.543Z,35.55
2022-08-07T18:21:03.694Z,35.08
2022-08-07T18:23:57.213Z,34.52
2022-08-07T18:26:40.683Z,33.75
2022-08-07T18:30:07.391Z,33.20
2022-08-07T18:32:22.771Z,32.78
2022-08-07T18:35:08.833Z,32.28
2022-08-07T18:38:57.381Z,31.83
2022-08-07T18:40:53.764Z,31.07
2022-08-07T18:43:49.149Z,30.41
2022-08-07T18:46:29.227Z,29.76
2022-08-07T18:50:32.866Z,29.20
2022-08-07T18:52:37.376Z,28.46
2022-08-07T18:55:42.700Z,27.63
2022-08-07T18:58:29.875Z,26.84
2022-08-07T19:01:09.645Z,26.22
2022-08-07T19:04:37.465Z,25.66
2022-08-07T19:07:51.868Z,25.15
2022-08-07T19:10:31.423Z,24.72
2022-08-07T19:13:11.769Z,24.39
2022-08-07T19:16:43.050Z,24.08
2022-08-07T19:19:17.692Z,23.68
2022-08-07T19:22:17.998Z,23.32
2022-08-07T19:24:53.047Z,22.99
2022-08-07T19:28:29.232Z,22.73
2022-08-07T19:30:56.948Z,22.48
2022-08-07T19:33:13.413Z,22.25
2022-08-07T19:35:46.793Z,22.02
2022-08-07T19:38:17.654Z,21.82
2022-08-07T19:40:50.298Z,21.63
2022-08-07T19:43:50.304Z,21.44
2022-08-07T19:46:11.272Z,21.23
2022-08-07T19:48:42.173Z,21.04
2022-08-07T19:51:19.961Z,20.82
2022-08-07T19:54:31.421Z,20.61
2022-08-07T19:56:59.761Z,20.40
2022-08-07T19:59:40.847Z,20.24
2022-08-07T20:02:19.457Z,20.12
2022-08-07T20:04:50.292Z,20.00
2022-08-07T20:07:46.234Z,19.86
2022-08-07T20:10:36.538Z,19.70
2022-08-07T20:13:22.904Z,19.55
2022-08-07T20:15:53.913Z,19.44
2022-08-07T20:18:32.852Z,19.34
2022-08-07T20:21:21.502Z,19.25
2022-08-07T20:24:00.495Z,19.15
2022-08-07T20:26:32.416Z,19.08
2022-08-07T20:29:17.109Z,19.00
2022-08-07T20:31:59.766Z,18.89
2022-08-07T20:34:49.376Z,18.79
2022-08-07T20:37:20.530Z,18.69
2022-08-07T20:40:04.223Z,18.62
2022-08-07T20:42:33.405Z,18.55
2022-08-07T20:45:01.345Z,18.50
2022-08-07T20:47:56.129Z,18.45
2022-08-07T20:50:21.271Z,18.40
2022-08-07T20:52:51.863Z,18.34
2022-08-07T20:55:23.653Z,18.28
2022-08-07T20:57:59.905Z,18.23
2022-08-07T21:00:53.909Z,18.17
2022-08-07T21:03:25.708Z,18.12
2022-08-07T21:06:21.603Z,18.08
2022-08-07T21:08:57.340Z,18.05
2022-08-07T21:11:50.062Z,18.01
2022-08-07T21:14:32.522Z,17.96
2022-08-07T21:18:02.032Z,17.91
2022-08-07T21:20:05.263Z,17.85
2022-08-07T21:22:39.498Z,17.80
2022-08-07T21:25:13.133Z,17.75
2022-08-07T21:27:47.117Z,17.71
2022-08-07T21:30:17.869Z,17.67
2022-08-07T21:32:57.977Z,17.62
2022-08-07T21:36:05.023Z,17.59
2022-08-07T21:39:01.243Z,17.53
2022-08-07T21:41:38.053Z,17.49
2022-08-07T21:44:31.746Z,17.45
2022-08-07T21:47:12.286Z,17.41
2022-08-07T21:50:01.395Z,17.38
2022-08-07T21:52:38.888Z,17.34
2022-08-07T21:55:28.180Z,17.30
2022-08-07T21:58:35.587Z,17.25
2022-08-07T22:01:42.252Z,17.22
2022-08-07T22:04:17.616Z,17.17
2022-08-07T22:06:59.367Z,17.12
2022-08-07T22:09:34.778Z,17.07
2022-08-07T22:12:14.244Z,17.01
2022-08-07T22:16:39.329Z,16.96
2022-08-07T22:17:56.850Z,16.90
2022-08-07T22:20:41.975Z,16.85
2022-08-07T22:23:43.686Z,16.81
2022-08-07T22:26:23.460Z,16.75
2022-08-07T22:29:13.819Z,16.69
2022-08-07T22:31:55.902Z,16.64
2022-08-07T22:34:39.698Z,16.58
2022-08-07T22:38:03.311Z,16.51
2022-08-07T22:40:23.407Z,16.45
2022-08-07T22:42:57.760Z,16.39
2022-08-07T22:46:40.812Z,16.34
2022-08-07T22:48:55.603Z,16.27
2022-08-07T22:51:55.179Z,16.19
2022-08-07T22:54:49.042Z,16.12
2022-08-07T22:57:44.832Z,16.07
2022-08-07T23:00:21.462Z,16.00
2022-08-07T23:03:20.142Z,15.96
2022-08-07T23:06:15.344Z,15.90
2022-08-07T23:10:06.414Z,15.84
2022-08-07T23:12:32.722Z,15.78
2022-08-07T23:16:04.853Z,15.74
2022-08-07T23:18:32.038Z,15.68
2022-08-07T23:21:16.269Z,15.65
2022-08-07T23:24:11.128Z,15.64
2022-08-07T23:27:04.538Z,15.61
2022-08-07T23:30:38.060Z,15.59
2022-08-07T23:34:20.742Z,15.56
2022-08-07T23:36:22.863Z,15.54
2022-08-07T23:39:11.467Z,15.52
2022-08-07T23:42:01.599Z,15.50
2022-08-07T23:44:31.449Z,15.49
2022-08-07T23:47:14.345Z,15.48
2022-08-07T23:49:50.434Z,15.47
2022-08-07T23:52:59.569Z,15.44
2022-08-07T23:55:51.909Z,15.40
2022-08-07T23:58:50.056Z,15.35
